Flight Track Log - Related Links

Times and Time Zones

All times are in EDT time to prevent confusion due to time zone crossing. See the CTL17 flight status page for this flight to view local times or setup timezone preferences in your user account.

Time Position Orientation Groundspeed Altitude Reporting Facility
EDT Latitude Longitude Course Direction KTS MPH feet Rate Location/Type
Thu 04:36:00 PM 43.3619 -84.0057 160° South  Level Estimated
Thu 04:37:00 PM 43.3366 -83.9838 148° Southeast  Level FlightAware Approximate
Thu 04:38:00 PM 43.3080 -83.9718 160° South  Level Estimated
Thu 04:39:00 PM 43.2807 -83.9553 156° South  Level FlightAware Approximate
Thu 04:40:00 PM 43.2382 -83.9377 163° South  Level Estimated
Thu 04:41:00 PM 43.1957 -83.9201 163° South  Level Estimated
Thu 04:42:00 PM 43.1531 -83.9025 163° South  Level Estimated
Thu 04:43:00 PM 43.1105 -83.8849 163° South  Level Estimated
Thu 04:44:00 PM 43.0665 -83.8668 163° South  Level Estimated
Thu 04:45:00 PM 43.0224 -83.8487 163° South  Level Estimated
Thu 04:46:00 PM 42.9784 -83.8306 163° South  Level Estimated
Thu 04:47:00 PM 42.9343 -83.8125 163° South  Level Estimated
Thu 04:48:00 PM 42.8903 -83.7945 163° South  Level Estimated
Thu 04:49:00 PM 42.8462 -83.7764 163° South  Level Estimated
Thu 04:50:00 PM 42.8021 -83.7585 163° South  Level Estimated
Thu 04:51:00 PM 42.7581 -83.7405 163° South  Level Estimated
Thu 04:52:00 PM 42.7140 -83.7225 163° South  Level Estimated
Thu 04:53:00 PM 42.6699 -83.7046 163° South  Level Estimated
Thu 04:54:00 PM 42.6259 -83.6867 163° South  Level Estimated
Thu 04:55:00 PM 42.5818 -83.6689 163° South  Level Estimated
Thu 04:56:00 PM 42.5377 -83.6510 163° South  Level Estimated
Thu 04:57:00 PM 42.4936 -83.6332 163° South  Level Estimated
Thu 04:57:59 PM 42.3119 -84.3797 163° South 173 199 3,000  Level Cleveland Center
Thu 04:58:00 PM 42.4495 -83.6154 163° South  Level Estimated
Thu 04:59:00 PM 42.4054 -83.5977 163° South  Level Estimated
Thu 04:59:06 PM 42.2628 -84.3514 157° South 174 200 3,200  Level Cleveland Center
Thu 05:00:00 PM 42.3613 -83.5799 163° South  Level Estimated
Thu 05:00:07 PM 42.2378 -84.2911 119° Southeast 191 220 3,100  Level Cleveland Center
Thu 05:01:00 PM 42.3172 -83.5622 163° South  Level Estimated
Thu 05:01:14 PM 42.2319 -84.2094 95° East 192 221 3,200  Level Cleveland Center
Thu 05:02:00 PM 42.2732 -83.5445 163° South  Level Estimated
Thu 05:02:09 PM 42.2297 -84.1475 93° East 189 217 3,200  Level Cleveland Center
Thu 05:03:00 PM 42.2393 -83.5310 163° South  Level Estimated
Thu 05:03:10 PM 42.2364 -84.0722 83° East 191 220 2,900  Level Cleveland Center
Thu 05:04:17 PM 42.2364 -83.9992 90° East 183 211 2,900 -99 Level Cleveland Center
Thu 05:05:11 PM 42.2361 -83.9347 90° East 190 219 2,700 -104 Descending Cleveland Center
Thu 05:06:12 PM 42.2342 -83.8644 92° East 175 201 2,700  Level Cleveland Center
Thu 05:07:13 PM 42.2378 -83.8031 85° East 176 203 2,700 -94 Level Cleveland Center
Thu 05:08:20 PM 42.2442 -83.7303 83° East 171 197 2,500 -246 Descending Cleveland Center
Thu 05:09:15 PM 42.2456 -83.6714 88° East 171 197 2,200 -414 Descending Cleveland Center
Thu 05:10:16 PM 42.2494 -83.6128 85° East 149 171 1,700 -492 Descending Cleveland Center
Thu 05:11:17 PM 42.2547 -83.5625 82° East 118 136 1,200 -492 Descending Cleveland Center

Login

Don't have an account? Register now (free) for customized features, flight alerts, and more!